首页
METAR-TAF:

METAR-TAF

机场 :

弗雷德里克頓, 新不倫瑞克, 加拿大

纬度: 45-52N, 经度: 066-32W, 海拔: 17米

当前天气观测

该预报发布于32分钟前的01:00 UTC
风速11节,风向南转西南
温度 17°C
湿度 72%
气压 1013 hPa
能見度: 14.5公里
天空无云

METAR: CYFC 210100Z AUTO 20011KT 9SM CLR 17/12 A2992 RMK SLP134 DENSITY ALT 300FT

时间: 22:32 (01:32 UTC)

预报

该预报发布于1小时和52分钟前的23:40 UTC
预报有效从21日的 00点(UTC)到 21日的 12点(UTC)
风速8节,风向南转西南
能見度: 10公里
少量云层高于5000英尺
散云层高于20000英尺
从 21日的 0700点(UTC)
风速10节,风向
能見度: 10公里
少量云层高于500英尺
几率 30%
从 21日的 08点(UTC)到 21日的 11点(UTC)
多云层高于500英尺

TAF: CYFC 202340Z 2100/2112 20008KT P6SM FEW050 SCT200 FM210700 18010KT P6SM FEW005 PROB30 2108/2111 BKN005 RMK FCST BASED ON AUTO OBS. NXT FCST BY 210600Z

超过4000个机场的气象观测和天气预报(METAR&TAF报告)。

可查询的气象台以黄色和红色小点在地图上表示。

将鼠标移到小点上方,可查看气象台名称。

然后点击查看天气观测和预报。

如需切换地图:点击带黑十字的绿色按钮放大地图;点击带横线的绿色按钮缩小地图;或者点击绿色箭头查看邻近地区的地图。


METAR-TAF: